createdAt,value
2023-02-17T00:01:45.509Z,101043.28
2023-02-17T00:04:16.889Z,101015.03
2023-02-17T00:06:48.359Z,101021.44
2023-02-17T00:09:18.654Z,101018.38
2023-02-17T00:11:50.901Z,101032.84
2023-02-17T00:14:19.965Z,100997.13
2023-02-17T00:16:52.025Z,101019.31
2023-02-17T00:19:27.476Z,101014.09
2023-02-17T00:21:58.805Z,100994.97
2023-02-17T00:24:32.496Z,101024.88
2023-02-17T00:27:08.525Z,101010.44
2023-02-17T00:29:51.366Z,100952.44
2023-02-17T00:32:21.722Z,101006.53
2023-02-17T00:34:52.282Z,100969.22
2023-02-17T00:37:22.230Z,101004.56
2023-02-17T00:39:55.062Z,100974.72
2023-02-17T00:42:25.258Z,101000.47
2023-02-17T00:44:53.503Z,101006.81
2023-02-17T00:47:22.735Z,101012.91
2023-02-17T00:49:51.997Z,101012.88
2023-02-17T00:52:22.992Z,101000.44
2023-02-17T00:54:53.432Z,101029.72
2023-02-17T00:57:26.832Z,100951.78
2023-02-17T00:59:56.818Z,101018.56
2023-02-17T01:02:25.579Z,100978.31
2023-02-17T01:04:54.576Z,101007.25
2023-02-17T01:10:14.377Z,100977.88
2023-02-17T01:12:46.828Z,101034.44
2023-02-17T01:15:16.044Z,101023.72
2023-02-17T01:17:44.894Z,101031.84
2023-02-17T01:20:13.640Z,101040.38
2023-02-17T01:22:43.929Z,101033.13
2023-02-17T01:25:13.636Z,101001.16
2023-02-17T01:27:41.909Z,100992.28
2023-02-17T01:30:11.509Z,101017.78
2023-02-17T01:32:39.936Z,100968.56
2023-02-17T01:35:08.834Z,100983.19
2023-02-17T01:37:38.330Z,100988.41
2023-02-17T01:40:08.989Z,101001.16
2023-02-17T01:42:38.919Z,100962.94
2023-02-17T01:45:34.349Z,100990.34
2023-02-17T01:48:09.173Z,100982.75
2023-02-17T01:50:52.082Z,100985.41
2023-02-17T01:53:24.177Z,100979.34
2023-02-17T01:55:54.284Z,100978.72
2023-02-17T01:58:28.518Z,100929.41
2023-02-17T02:01:01.931Z,100951.63
2023-02-17T02:03:35.880Z,100965.50
2023-02-17T02:06:08.398Z,100942.41
2023-02-17T02:08:44.258Z,100960.94
2023-02-17T02:11:12.191Z,100939.69
2023-02-17T02:13:45.607Z,100951.19
2023-02-17T02:16:21.933Z,100951.00
2023-02-17T02:19:07.688Z,100941.50
2023-02-17T02:22:07.692Z,100926.94
2023-02-17T02:24:48.788Z,100927.88
2023-02-17T02:27:36.672Z,100912.78
2023-02-17T02:30:29.689Z,100918.53
2023-02-17T02:33:13.270Z,100893.19
2023-02-17T02:35:57.508Z,100903.88
2023-02-17T02:38:34.356Z,100866.84
2023-02-17T02:41:10.169Z,100856.59
2023-02-17T02:43:38.841Z,100893.00
2023-02-17T02:46:10.196Z,100901.03
2023-02-17T02:48:45.980Z,100904.41
2023-02-17T02:51:27.050Z,100894.84
2023-02-17T02:54:19.928Z,100893.47
2023-02-17T02:57:12.758Z,100894.34
2023-02-17T02:59:49.673Z,100894.44
2023-02-17T03:02:27.883Z,100842.59
2023-02-17T03:05:06.407Z,100871.06
2023-02-17T03:07:39.698Z,100882.41
2023-02-17T03:10:09.746Z,100879.66
2023-02-17T03:12:39.408Z,100872.47
2023-02-17T03:15:16.590Z,100849.00
2023-02-17T03:17:44.647Z,100850.78
2023-02-17T03:20:16.071Z,100873.25
2023-02-17T03:22:49.454Z,100872.03
2023-02-17T03:25:20.029Z,100861.91
2023-02-17T03:27:52.844Z,100868.50
2023-02-17T03:30:21.549Z,100879.94
2023-02-17T03:32:50.023Z,100881.72
2023-02-17T03:35:22.289Z,100884.25
2023-02-17T03:37:50.573Z,100863.38
2023-02-17T03:40:19.208Z,100863.66
2023-02-17T03:42:47.806Z,100836.25
2023-02-17T03:45:15.874Z,100830.22
2023-02-17T03:47:44.099Z,100872.94
2023-02-17T03:50:14.882Z,100856.81
2023-02-17T03:52:44.396Z,100866.84
2023-02-17T03:55:12.632Z,100864.81
2023-02-17T03:57:40.635Z,100853.13
2023-02-17T04:00:09.671Z,100821.97
2023-02-17T04:02:37.923Z,100798.56
2023-02-17T04:05:06.391Z,100861.22
2023-02-17T04:07:36.784Z,100864.34
2023-02-17T04:10:09.645Z,100841.81
2023-02-17T04:12:37.880Z,100867.53
2023-02-17T04:15:08.438Z,100865.84
2023-02-17T04:17:39.083Z,100872.53
2023-02-17T04:20:11.224Z,100876.72
2023-02-17T04:22:40.213Z,100877.34
2023-02-17T04:25:10.130Z,100834.09
2023-02-17T04:27:41.970Z,100866.09
2023-02-17T04:30:12.569Z,100866.50
2023-02-17T04:32:42.274Z,100867.75
2023-02-17T04:35:13.886Z,100863.97
2023-02-17T04:37:41.717Z,100851.66
2023-02-17T04:40:21.559Z,100847.03
2023-02-17T04:42:51.466Z,100867.09
2023-02-17T04:45:21.550Z,100874.00
2023-02-17T04:47:50.135Z,100872.38
2023-02-17T04:50:20.926Z,100868.78
2023-02-17T04:52:49.074Z,100856.84
2023-02-17T04:55:18.982Z,100867.31
2023-02-17T04:57:49.118Z,100874.81
2023-02-17T05:00:18.492Z,100872.94
2023-02-17T05:02:47.983Z,100870.84
2023-02-17T05:05:19.280Z,100875.03
2023-02-17T05:07:48.516Z,100849.13
2023-02-17T05:10:21.641Z,100849.72
2023-02-17T05:12:51.035Z,100870.25
2023-02-17T05:15:19.406Z,100872.13
2023-02-17T05:17:47.825Z,100867.28
2023-02-17T05:20:16.654Z,100827.16
2023-02-17T05:25:31.273Z,100865.66
2023-02-17T05:27:59.453Z,100835.75
2023-02-17T05:30:30.360Z,100862.94
2023-02-17T05:32:58.856Z,100861.03
2023-02-17T05:35:26.968Z,100850.78
2023-02-17T05:37:55.541Z,100871.50
2023-02-17T05:40:25.328Z,100881.50
2023-02-17T05:42:55.088Z,100845.81
2023-02-17T05:45:30.032Z,100878.41
2023-02-17T05:47:59.914Z,100888.41
2023-02-17T05:50:35.475Z,100893.00
2023-02-17T05:53:03.797Z,100903.25
2023-02-17T05:55:31.756Z,100874.22
2023-02-17T05:58:01.761Z,100863.16
2023-02-17T06:00:30.533Z,100892.84
2023-02-17T06:03:02.018Z,100899.53
2023-02-17T06:05:30.392Z,100897.00
2023-02-17T06:07:58.184Z,100896.56
2023-02-17T06:10:26.484Z,100890.09
2023-02-17T06:12:55.765Z,100890.72
2023-02-17T06:15:26.199Z,100870.25
2023-02-17T06:17:57.058Z,100881.13
2023-02-17T06:20:25.915Z,100876.72
2023-02-17T06:23:02.082Z,100852.72
2023-02-17T06:25:30.237Z,100887.19
2023-02-17T06:28:01.171Z,100876.53
2023-02-17T06:30:33.344Z,100864.41
2023-02-17T06:33:03.818Z,100862.94
2023-02-17T06:35:35.042Z,100877.59
2023-02-17T06:38:06.899Z,100875.28
2023-02-17T06:40:35.270Z,100883.63
2023-02-17T06:43:03.850Z,100877.59
2023-02-17T06:45:33.301Z,100887.41
2023-02-17T06:48:05.586Z,100881.56
2023-02-17T06:50:36.039Z,100873.81
2023-02-17T06:53:08.338Z,100885.75
2023-02-17T06:55:37.544Z,100901.00
2023-02-17T06:58:08.548Z,100879.22
2023-02-17T07:00:40.918Z,100903.91
2023-02-17T07:03:14.879Z,100903.06
2023-02-17T07:05:42.790Z,100884.91
2023-02-17T07:08:13.327Z,100886.56
2023-02-17T07:10:42.762Z,100886.59
2023-02-17T07:13:11.691Z,100895.56
2023-02-17T07:15:44.804Z,100893.66
2023-02-17T07:18:20.190Z,100912.50
2023-02-17T07:20:48.901Z,100899.09
2023-02-17T07:23:18.582Z,100900.78
2023-02-17T07:25:47.152Z,100897.03
2023-02-17T07:28:18.964Z,100893.28
2023-02-17T07:30:51.406Z,100889.06
2023-02-17T07:33:19.395Z,100863.38
2023-02-17T07:35:49.431Z,100883.63
2023-02-17T07:38:17.691Z,100891.19
2023-02-17T07:40:48.328Z,100871.75
2023-02-17T07:43:19.018Z,100884.31
2023-02-17T07:45:48.965Z,100899.97
2023-02-17T07:48:18.171Z,100893.91
2023-02-17T07:50:49.742Z,100884.47
2023-02-17T07:53:22.922Z,100890.53
2023-02-17T07:55:52.384Z,100869.03
2023-02-17T07:58:23.162Z,100887.00
2023-02-17T08:00:53.832Z,100877.78
2023-02-17T08:03:22.192Z,100879.69
2023-02-17T08:05:52.988Z,100885.97
2023-02-17T08:08:50.279Z,100877.38
2023-02-17T08:11:36.510Z,100865.25
2023-02-17T08:14:04.945Z,100862.09
2023-02-17T08:16:34.800Z,100878.59
2023-02-17T08:19:03.360Z,100861.69
2023-02-17T08:21:37.691Z,100866.91
2023-02-17T08:24:06.153Z,100877.31
2023-02-17T08:26:37.043Z,100876.03
2023-02-17T08:29:11.939Z,100879.81
2023-02-17T08:31:44.532Z,100880.69
2023-02-17T08:34:17.707Z,100863.72
2023-02-17T08:36:47.501Z,100874.38
2023-02-17T08:39:19.731Z,100865.00
2023-02-17T08:41:56.751Z,100884.09
2023-02-17T08:44:25.629Z,100878.38
2023-02-17T08:46:55.887Z,100847.47
2023-02-17T08:49:26.255Z,100878.88
2023-02-17T08:51:55.672Z,100894.78
2023-02-17T08:54:24.316Z,100885.78
2023-02-17T08:56:56.219Z,100882.47
2023-02-17T08:59:24.263Z,100872.16
2023-02-17T09:01:55.797Z,100883.72
2023-02-17T09:04:23.952Z,100830.50
2023-02-17T09:06:54.216Z,100877.13
2023-02-17T09:09:26.686Z,100882.34
2023-02-17T09:11:57.423Z,100896.44
2023-02-17T09:14:27.531Z,100814.53
2023-02-17T09:16:58.047Z,100881.28
2023-02-17T09:19:31.172Z,100863.13
2023-02-17T09:22:00.265Z,100885.09
2023-02-17T09:24:28.855Z,100854.59
2023-02-17T09:26:58.228Z,100892.25
2023-02-17T09:29:27.697Z,100891.81
2023-02-17T09:32:05.306Z,100877.56
2023-02-17T09:34:37.537Z,100877.38
2023-02-17T09:37:13.959Z,100867.13
2023-02-17T09:39:42.682Z,100871.09
2023-02-17T09:42:19.498Z,100879.06
2023-02-17T09:44:52.506Z,100870.66
2023-02-17T09:47:24.960Z,100874.84
2023-02-17T09:49:58.714Z,100872.91
2023-02-17T09:52:36.257Z,100875.41
2023-02-17T09:55:11.472Z,100863.72
2023-02-17T09:57:47.235Z,100889.88
2023-02-17T10:00:21.854Z,100890.13
2023-02-17T10:03:00.171Z,100890.97
2023-02-17T10:05:36.940Z,100898.22
2023-02-17T10:08:13.848Z,100900.69
2023-02-17T10:10:49.038Z,100882.59
2023-02-17T10:13:23.711Z,100907.63
2023-02-17T10:15:54.699Z,100874.38
2023-02-17T10:18:36.466Z,100896.66
2023-02-17T10:21:08.771Z,100897.63
2023-02-17T10:23:41.738Z,100904.22
2023-02-17T10:26:21.553Z,100892.56
2023-02-17T10:28:54.069Z,100866.19
2023-02-17T10:31:34.569Z,100868.72
2023-02-17T10:34:11.788Z,100855.91
2023-02-17T10:36:52.210Z,100906.91
2023-02-17T10:39:35.785Z,100869.56
2023-02-17T10:42:05.586Z,100867.19
2023-02-17T10:44:37.875Z,100901.97
2023-02-17T10:47:09.016Z,100855.47
2023-02-17T10:49:47.144Z,100892.69
2023-02-17T10:52:18.441Z,100906.19
2023-02-17T10:54:59.556Z,100902.97
2023-02-17T10:57:36.701Z,100884.22
2023-02-17T11:00:09.967Z,100868.66
2023-02-17T11:02:43.166Z,100884.44
2023-02-17T11:05:27.433Z,100875.59
2023-02-17T11:08:04.108Z,100894.72
2023-02-17T11:10:36.796Z,100889.50
2023-02-17T11:13:06.356Z,100893.34
2023-02-17T11:15:37.974Z,100870.66
2023-02-17T11:18:13.965Z,100882.06
2023-02-17T11:20:46.036Z,100864.91
2023-02-17T11:23:25.002Z,100880.81
2023-02-17T11:26:04.613Z,100876.84
2023-02-17T11:28:34.549Z,100885.72
2023-02-17T11:31:05.727Z,100885.25
2023-02-17T11:33:41.388Z,100883.06
2023-02-17T11:36:28.216Z,100862.53
2023-02-17T11:38:57.340Z,100869.34
2023-02-17T11:41:26.767Z,100874.75
2023-02-17T11:43:58.702Z,100879.53
2023-02-17T11:46:37.684Z,100850.00
2023-02-17T11:49:35.886Z,100866.72
2023-02-17T11:52:19.033Z,100868.19
2023-02-17T11:55:00.158Z,100866.78
2023-02-17T11:57:40.310Z,100849.50
2023-02-17T12:00:24.517Z,100839.59
2023-02-17T12:03:11.829Z,100850.97
2023-02-17T12:05:56.623Z,100853.78
2023-02-17T12:08:42.606Z,100849.16
2023-02-17T12:11:22.151Z,100849.19
2023-02-17T12:14:17.720Z,100810.00
2023-02-17T12:16:53.105Z,100840.78
2023-02-17T12:19:44.627Z,100845.31
2023-02-17T12:22:33.927Z,100841.72
2023-02-17T12:25:23.701Z,100837.16
2023-02-17T12:28:17.623Z,100839.94
2023-02-17T12:31:00.753Z,100827.28
2023-02-17T12:33:49.022Z,100804.41
2023-02-17T12:36:20.237Z,100822.44
2023-02-17T12:38:54.371Z,100811.22
2023-02-17T12:41:41.991Z,100807.50
2023-02-17T12:44:17.942Z,100799.97
2023-02-17T12:46:48.663Z,100774.72
2023-02-17T12:49:23.269Z,100791.16
2023-02-17T12:51:53.291Z,100782.16
2023-02-17T12:54:30.128Z,100785.81
2023-02-17T12:57:19.826Z,100797.47
2023-02-17T12:59:50.387Z,100790.78
2023-02-17T13:02:21.727Z,100789.75
2023-02-17T13:04:53.818Z,100768.84
2023-02-17T13:07:41.825Z,100778.81
2023-02-17T13:10:23.690Z,100796.66
2023-02-17T13:13:03.925Z,100786.38
2023-02-17T13:15:37.168Z,100801.41
2023-02-17T13:18:30.640Z,100772.66
2023-02-17T13:21:02.662Z,100781.09
2023-02-17T13:23:37.908Z,100773.47
2023-02-17T13:26:18.028Z,100764.56
2023-02-17T13:28:49.229Z,100770.66
2023-02-17T13:31:22.676Z,100791.78
2023-02-17T13:33:58.517Z,100769.84
2023-02-17T13:36:37.705Z,100785.22
2023-02-17T13:39:12.843Z,100759.97
2023-02-17T13:41:48.084Z,100772.63
2023-02-17T13:44:41.443Z,100758.34
2023-02-17T13:51:42.520Z,100754.34
2023-02-17T13:54:25.096Z,100752.59
2023-02-17T13:57:00.496Z,100753.78
2023-02-17T13:59:32.347Z,100744.88
2023-02-17T14:02:01.194Z,100756.53
2023-02-17T14:04:34.153Z,100755.56
2023-02-17T14:07:08.259Z,100750.81
2023-02-17T14:09:36.967Z,100764.59
2023-02-17T14:12:09.015Z,100733.97
2023-02-17T14:14:38.777Z,100753.22
2023-02-17T14:17:10.739Z,100750.25
2023-02-17T14:19:50.642Z,100756.09
2023-02-17T14:22:29.024Z,100737.31
2023-02-17T14:25:06.201Z,100744.09
2023-02-17T14:27:45.122Z,100721.06
2023-02-17T14:30:17.291Z,100751.72
2023-02-17T14:32:46.020Z,100717.84
2023-02-17T14:35:29.207Z,100708.63
2023-02-17T14:38:10.944Z,100744.34
2023-02-17T14:40:50.847Z,100739.28
2023-02-17T14:43:20.426Z,100750.75
2023-02-17T14:45:48.800Z,100738.13
2023-02-17T14:48:18.584Z,100746.09
2023-02-17T14:50:51.376Z,100750.16
2023-02-17T14:53:33.438Z,100745.66
2023-02-17T14:56:07.733Z,100754.06
2023-02-17T14:58:37.238Z,100750.22
2023-02-17T15:01:07.739Z,100740.28
2023-02-17T15:03:42.140Z,100739.06
2023-02-17T15:06:16.242Z,100750.88
2023-02-17T15:08:49.980Z,100775.34
2023-02-17T15:11:21.752Z,100765.19
2023-02-17T15:13:51.828Z,100757.38
2023-02-17T15:16:20.169Z,100752.28
2023-02-17T15:18:50.293Z,100761.63
2023-02-17T15:21:31.179Z,100767.38
2023-02-17T15:24:01.340Z,100760.22
2023-02-17T15:26:32.233Z,100776.75
2023-02-17T15:29:01.442Z,100778.03
2023-02-17T15:31:33.785Z,100744.88
2023-02-17T15:34:04.170Z,100751.19
2023-02-17T15:36:35.836Z,100767.13
2023-02-17T15:39:04.756Z,100780.69
2023-02-17T15:41:35.757Z,100754.28
2023-02-17T15:44:07.485Z,100765.97
2023-02-17T15:46:39.261Z,100742.91
2023-02-17T15:49:08.953Z,100727.75
2023-02-17T15:51:40.498Z,100729.81
2023-02-17T15:54:09.113Z,100744.41
2023-02-17T15:56:46.392Z,100743.56
2023-02-17T15:59:21.298Z,100748.16
2023-02-17T16:01:50.675Z,100763.72
2023-02-17T16:04:31.047Z,100737.94
2023-02-17T16:07:03.146Z,100779.81
2023-02-17T16:09:32.929Z,100780.75
2023-02-17T16:12:05.204Z,100771.94
2023-02-17T16:14:37.533Z,100767.31
2023-02-17T16:17:14.782Z,100760.69
2023-02-17T16:19:47.192Z,100749.03
2023-02-17T16:22:18.744Z,100750.00
2023-02-17T16:24:49.098Z,100761.03
2023-02-17T16:27:18.921Z,100749.59
2023-02-17T16:29:50.985Z,100755.84
2023-02-17T16:32:21.401Z,100767.72
2023-02-17T16:34:52.397Z,100781.31
2023-02-17T16:37:25.002Z,100769.34
2023-02-17T16:39:58.284Z,100768.16
2023-02-17T16:42:28.981Z,100761.25
2023-02-17T16:45:00.509Z,100790.34
2023-02-17T16:47:31.663Z,100752.44
2023-02-17T16:50:18.219Z,100773.91
2023-02-17T16:52:49.964Z,100762.38
2023-02-17T16:55:22.140Z,100762.69
2023-02-17T16:58:01.432Z,100791.75
2023-02-17T17:00:35.137Z,100781.50
2023-02-17T17:03:06.874Z,100799.41
2023-02-17T17:05:35.775Z,100808.88
2023-02-17T17:08:05.493Z,100801.53
2023-02-17T17:10:36.452Z,100768.97
2023-02-17T17:13:05.971Z,100822.09
2023-02-17T17:15:44.688Z,100811.38
2023-02-17T17:18:20.961Z,100801.91
2023-02-17T17:20:53.841Z,100802.50
2023-02-17T17:23:23.684Z,100814.03
2023-02-17T17:25:54.784Z,100816.13
2023-02-17T17:28:24.343Z,100806.28
2023-02-17T17:30:53.885Z,100816.16
2023-02-17T17:33:24.247Z,100818.88
2023-02-17T17:35:54.805Z,100819.13
2023-02-17T17:38:24.682Z,100835.41
2023-02-17T17:40:56.897Z,100820.09
2023-02-17T17:43:28.317Z,100830.03
2023-02-17T17:45:56.416Z,100832.16
2023-02-17T17:48:25.886Z,100840.97
2023-02-17T17:50:54.240Z,100837.75
2023-02-17T17:53:22.705Z,100845.41
2023-02-17T17:55:54.456Z,100862.94
2023-02-17T17:58:24.277Z,100873.00
2023-02-17T18:00:53.274Z,100865.78
2023-02-17T18:03:22.425Z,100879.75
2023-02-17T18:05:52.670Z,100885.81
2023-02-17T18:08:23.250Z,100885.38
2023-02-17T18:10:51.898Z,100892.34
2023-02-17T18:13:22.229Z,100886.94
2023-02-17T18:15:50.789Z,100906.00
2023-02-17T18:18:21.962Z,100913.66
2023-02-17T18:20:53.597Z,100917.81
2023-02-17T18:23:22.732Z,100905.84
2023-02-17T18:25:51.703Z,100917.59
2023-02-17T18:28:26.192Z,100930.41
2023-02-17T18:30:57.196Z,100924.91
2023-02-17T18:33:25.490Z,100932.41
2023-02-17T18:35:54.529Z,100927.78
2023-02-17T18:38:23.416Z,100932.19
2023-02-17T18:40:53.782Z,100934.56
2023-02-17T18:43:28.824Z,100915.63
2023-02-17T18:45:58.910Z,100945.19
2023-02-17T18:48:27.337Z,100907.88
2023-02-17T18:50:56.319Z,100934.56
2023-02-17T18:53:27.344Z,100962.25
2023-02-17T18:55:56.166Z,100952.72
2023-02-17T18:58:26.806Z,100960.06
2023-02-17T19:00:57.027Z,100958.94
2023-02-17T19:03:26.904Z,100971.75
2023-02-17T19:05:56.036Z,100975.81
2023-02-17T19:08:26.021Z,100972.75
2023-02-17T19:10:56.508Z,100969.25
2023-02-17T19:13:26.301Z,100970.50
2023-02-17T19:15:54.202Z,100969.66
2023-02-17T19:18:22.621Z,100977.00
2023-02-17T19:20:55.653Z,100976.44
2023-02-17T19:23:25.092Z,100985.13
2023-02-17T19:25:53.329Z,100985.13
2023-02-17T19:28:23.984Z,100974.00
2023-02-17T19:30:58.886Z,100981.00
2023-02-17T19:33:30.057Z,100982.19
2023-02-17T19:35:58.422Z,100965.47
2023-02-17T19:38:26.356Z,100991.25
2023-02-17T19:40:56.241Z,100973.84
2023-02-17T19:43:25.188Z,100996.41
2023-02-17T19:45:55.147Z,100992.63
2023-02-17T19:48:25.455Z,101003.09
2023-02-17T19:51:02.303Z,100995.63
2023-02-17T19:53:36.417Z,101004.91
2023-02-17T19:56:13.377Z,101000.72
2023-02-17T19:58:43.092Z,101011.97
2023-02-17T20:01:22.948Z,100996.06
2023-02-17T20:03:55.378Z,101018.88
2023-02-17T20:06:25.549Z,101018.34
2023-02-17T20:08:57.931Z,101007.38
2023-02-17T20:11:27.421Z,100986.78
2023-02-17T20:14:02.010Z,100995.81
2023-02-17T20:16:40.732Z,100995.34
2023-02-17T20:19:10.538Z,100975.25
2023-02-17T20:21:43.167Z,101019.19
2023-02-17T20:24:11.423Z,101009.13
2023-02-17T20:26:45.787Z,101027.59
2023-02-17T20:29:16.470Z,101013.31
2023-02-17T20:31:46.780Z,101026.59
2023-02-17T20:34:30.144Z,101023.09
2023-02-17T20:37:05.147Z,101033.19
2023-02-17T20:39:33.793Z,101014.50
2023-02-17T20:42:30.510Z,100992.59
2023-02-17T20:45:22.815Z,101028.75
2023-02-17T20:47:52.758Z,101030.91
2023-02-17T20:50:37.045Z,101033.09
2023-02-17T20:53:07.070Z,101027.38
2023-02-17T20:55:38.798Z,101043.31
2023-02-17T20:58:08.487Z,101034.97
2023-02-17T21:00:37.998Z,101027.66
2023-02-17T21:03:10.958Z,101038.28
2023-02-17T21:05:39.615Z,101005.09
2023-02-17T21:08:30.736Z,101043.16
2023-02-17T21:11:00.267Z,101044.16
2023-02-17T21:13:31.379Z,101053.59
2023-02-17T21:15:59.715Z,101051.59
2023-02-17T21:18:30.201Z,101049.44
2023-02-17T21:23:41.220Z,101041.75
2023-02-17T21:26:14.545Z,101048.94
2023-02-17T21:28:42.628Z,101058.53
2023-02-17T21:31:12.554Z,101058.59
2023-02-17T21:33:44.988Z,101062.16
2023-02-17T21:36:20.026Z,101057.56
2023-02-17T21:38:50.835Z,101048.97
2023-02-17T21:41:22.810Z,101048.34
2023-02-17T21:44:08.326Z,101047.50
2023-02-17T21:46:42.543Z,101028.66
2023-02-17T21:49:13.370Z,101034.69
2023-02-17T21:51:43.349Z,101038.63
2023-02-17T21:54:12.830Z,101039.47
2023-02-17T21:56:40.929Z,101035.44
2023-02-17T21:59:09.399Z,101029.41
2023-02-17T22:01:41.297Z,101011.19
2023-02-17T22:04:13.071Z,101034.13
2023-02-17T22:06:42.995Z,101018.63
2023-02-17T22:09:14.784Z,101028.31
2023-02-17T22:11:44.055Z,101040.06
2023-02-17T22:14:14.956Z,101039.66
2023-02-17T22:16:45.314Z,101035.66
2023-02-17T22:19:16.653Z,101036.88
2023-02-17T22:21:56.128Z,101042.09
2023-02-17T22:24:27.333Z,101044.41
2023-02-17T22:26:56.354Z,101050.28
2023-02-17T22:29:24.666Z,101033.22
2023-02-17T22:31:56.720Z,101035.75
2023-02-17T22:34:28.725Z,101036.97
2023-02-17T22:36:58.322Z,101044.31
2023-02-17T22:39:27.974Z,101049.16
2023-02-17T22:41:56.750Z,101049.56
2023-02-17T22:44:26.306Z,101051.66
2023-02-17T22:46:54.674Z,101046.59
2023-02-17T22:49:22.795Z,101034.25
2023-02-17T22:51:52.476Z,101042.00
2023-02-17T22:54:22.543Z,101046.84
2023-02-17T22:56:53.848Z,101036.16
2023-02-17T22:59:21.986Z,101044.13
2023-02-17T23:01:50.031Z,101045.31
2023-02-17T23:04:20.872Z,101043.41
2023-02-17T23:06:49.465Z,101041.56
2023-02-17T23:09:19.741Z,101041.34
2023-02-17T23:11:53.772Z,101041.72
2023-02-17T23:14:27.208Z,101040.22
2023-02-17T23:17:01.128Z,101038.78
2023-02-17T23:19:31.917Z,100999.69
2023-02-17T23:22:02.123Z,101033.81
2023-02-17T23:24:30.557Z,101057.03
2023-02-17T23:27:04.181Z,101054.91
2023-02-17T23:29:34.056Z,101062.69
2023-02-17T23:32:02.704Z,101063.78
2023-02-17T23:34:33.274Z,101060.59
2023-02-17T23:37:03.696Z,101035.31
2023-02-17T23:39:32.520Z,101055.22
2023-02-17T23:42:05.789Z,101056.06
2023-02-17T23:44:35.070Z,101054.81
2023-02-17T23:47:06.538Z,101035.06
2023-02-17T23:49:34.476Z,101046.22
2023-02-17T23:52:05.441Z,101040.97
2023-02-17T23:54:34.992Z,101039.31
2023-02-17T23:57:05.190Z,101043.25
2023-02-17T23:59:33.719Z,101042.03
